Terminal Aerodrome Forecast
Issued by NWS

Current Version | Previous Version | Graphics & Text | Print | Product List | Glossary On
Versions: 1 2 3 4 5 6 7 8 9 10 11 12 13 14 15 16 17 18 19 20 21 22 23 24 25 26 27 28 29 30 31 32 33
703
FTUS41 KRLX 271744
TAFCKB
TAF
KCKB 271744Z 2718/2818 25004KT P6SM VCTS SCT045CB SCT070
     FM280100 VRB02KT P6SM SCT050 SCT070
     FM280400 00000KT 6SM BR SCT080
     FM280800 00000KT 3SM BR FEW001 BKN080
     FM281300 00000KT 4SM BR BKN070
     FM281700 00000KT P6SM VCTS BKN050CB=

USA.gov is the U.S. government's official web portal to all federal, state and local government web resources and services.